createdAt,value
2023-01-30T00:00:51.083Z,81.28
2023-01-30T00:03:17.859Z,81.71
2023-01-30T00:05:45.569Z,82.37
2023-01-30T00:08:12.286Z,82.30
2023-01-30T00:10:40.317Z,82.76
2023-01-30T00:13:07.154Z,82.80
2023-01-30T00:15:33.912Z,84.69
2023-01-30T00:18:00.664Z,85.32
2023-01-30T00:20:27.618Z,85.81
2023-01-30T00:23:00.897Z,86.10
2023-01-30T00:25:28.703Z,85.54
2023-01-30T00:27:55.385Z,85.47
2023-01-30T00:30:22.533Z,85.59
2023-01-30T00:32:54.405Z,85.30
2023-01-30T00:35:21.259Z,85.30
2023-01-30T00:37:47.915Z,85.32
2023-01-30T00:40:15.240Z,85.42
2023-01-30T00:42:41.837Z,85.50
2023-01-30T00:45:11.906Z,86.10
2023-01-30T00:47:38.751Z,86.61
2023-01-30T00:50:05.926Z,86.45
2023-01-30T00:52:32.611Z,86.52
2023-01-30T00:54:59.510Z,86.85
2023-01-30T00:57:26.386Z,87.63
2023-01-30T00:59:53.012Z,87.88
2023-01-30T01:02:19.921Z,87.71
2023-01-30T01:04:46.709Z,87.13
2023-01-30T01:07:14.331Z,86.98
2023-01-30T01:09:42.098Z,86.75
2023-01-30T01:12:09.641Z,86.44
2023-01-30T01:14:36.368Z,86.99
2023-01-30T01:17:04.107Z,86.28
2023-01-30T01:19:30.985Z,86.50
2023-01-30T01:21:57.585Z,86.39
2023-01-30T01:24:24.366Z,86.89
2023-01-30T01:26:50.967Z,86.81
2023-01-30T01:29:17.755Z,85.60
2023-01-30T01:31:44.874Z,85.31
2023-01-30T01:34:12.317Z,85.56
2023-01-30T01:36:54.906Z,85.33
2023-01-30T01:39:22.558Z,86.53
2023-01-30T01:41:50.319Z,86.36
2023-01-30T01:44:17.226Z,86.29
2023-01-30T01:46:57.905Z,85.64
2023-01-30T01:49:32.415Z,84.49
2023-01-30T01:51:59.178Z,84.91
2023-01-30T01:54:33.156Z,86.20
2023-01-30T01:57:04.951Z,85.59
2023-01-30T01:59:37.912Z,85.53
2023-01-30T02:02:10.616Z,84.84
2023-01-30T02:04:40.349Z,84.66
2023-01-30T02:07:08.654Z,85.45
2023-01-30T02:09:35.704Z,84.42
2023-01-30T02:12:04.228Z,84.81
2023-01-30T02:14:33.625Z,84.47
2023-01-30T02:17:00.299Z,84.41
2023-01-30T02:19:43.529Z,84.14
2023-01-30T02:22:31.895Z,84.55
2023-01-30T02:25:17.574Z,85.67
2023-01-30T02:28:09.075Z,86.34
2023-01-30T02:30:56.193Z,86.80
2023-01-30T02:34:00.170Z,87.50
2023-01-30T02:36:43.215Z,87.10
2023-01-30T02:39:28.379Z,88.32
2023-01-30T02:42:24.541Z,88.75
2023-01-30T02:45:16.385Z,88.06
2023-01-30T02:48:07.021Z,88.82
2023-01-30T02:50:37.279Z,88.47
2023-01-30T02:53:06.022Z,87.55
2023-01-30T02:55:33.419Z,87.76
2023-01-30T02:58:02.459Z,87.39
2023-01-30T03:01:05.893Z,86.98
2023-01-30T03:03:52.959Z,86.73
2023-01-30T03:06:41.004Z,86.83
2023-01-30T03:09:07.861Z,86.95
2023-01-30T03:11:44.193Z,87.71
2023-01-30T03:14:25.848Z,88.20
2023-01-30T03:16:57.591Z,88.43
2023-01-30T03:19:24.363Z,88.79
2023-01-30T03:21:51.130Z,89.05
2023-01-30T03:24:18.078Z,90.15
2023-01-30T03:26:54.448Z,89.78
2023-01-30T03:29:21.328Z,90.12
2023-01-30T03:31:48.628Z,90.78
2023-01-30T03:34:15.729Z,91.64
2023-01-30T03:36:42.432Z,91.97
2023-01-30T03:39:09.220Z,90.85
2023-01-30T03:41:36.068Z,91.50
2023-01-30T03:44:02.913Z,92.02
2023-01-30T03:46:29.857Z,91.74
2023-01-30T03:48:56.696Z,90.81
2023-01-30T03:51:23.440Z,91.24
2023-01-30T03:53:50.202Z,91.07
2023-01-30T03:56:17.238Z,90.71
2023-01-30T03:58:44.173Z,91.08
2023-01-30T04:01:17.496Z,90.38
2023-01-30T04:03:44.226Z,91.85
2023-01-30T04:06:10.845Z,91.92
2023-01-30T04:08:37.743Z,91.18
2023-01-30T04:11:05.819Z,90.67
2023-01-30T04:13:32.621Z,90.06
2023-01-30T04:16:16.399Z,88.94
2023-01-30T04:19:01.471Z,89.15
2023-01-30T04:21:31.458Z,89.37
2023-01-30T04:23:58.182Z,90.74
2023-01-30T04:26:25.336Z,89.94
2023-01-30T04:28:52.190Z,89.49
2023-01-30T04:31:18.987Z,90.26
2023-01-30T04:34:04.205Z,88.55
2023-01-30T04:36:31.061Z,87.79
2023-01-30T04:38:58.026Z,88.63
2023-01-30T04:41:25.789Z,89.56
2023-01-30T04:43:56.769Z,90.56
2023-01-30T04:46:34.956Z,89.14
2023-01-30T04:49:01.597Z,89.64
2023-01-30T04:51:28.301Z,90.42
2023-01-30T04:54:20.982Z,90.02
2023-01-30T04:56:47.775Z,89.32
2023-01-30T04:59:15.553Z,89.30
2023-01-30T05:01:44.389Z,89.80
2023-01-30T05:04:11.027Z,89.25
2023-01-30T05:06:37.778Z,88.60
2023-01-30T05:09:05.292Z,88.11
2023-01-30T05:11:33.145Z,88.81
2023-01-30T05:13:59.873Z,89.26
2023-01-30T05:16:27.371Z,89.95
2023-01-30T05:18:54.091Z,89.76
2023-01-30T05:21:25.998Z,90.56
2023-01-30T05:23:53.311Z,90.19
2023-01-30T05:26:20.130Z,91.22
2023-01-30T05:28:55.217Z,90.84
2023-01-30T05:31:22.738Z,90.69
2023-01-30T05:33:51.894Z,92.53
2023-01-30T05:36:20.468Z,92.43
2023-01-30T05:38:47.087Z,92.32
2023-01-30T05:41:15.624Z,91.66
2023-01-30T05:43:42.549Z,92.03
2023-01-30T05:46:11.622Z,92.77
2023-01-30T05:48:38.441Z,92.88
2023-01-30T05:51:05.455Z,93.04
2023-01-30T05:53:33.775Z,93.35
2023-01-30T05:56:04.042Z,93.13
2023-01-30T05:58:32.003Z,92.21
2023-01-30T06:01:06.816Z,92.45
2023-01-30T06:03:34.043Z,93.07
2023-01-30T06:06:05.559Z,92.43
2023-01-30T06:08:33.337Z,92.30
2023-01-30T06:11:04.996Z,91.65
2023-01-30T06:13:31.835Z,92.86
2023-01-30T06:15:58.529Z,93.05
2023-01-30T06:18:25.571Z,92.06
2023-01-30T06:20:53.664Z,90.84
2023-01-30T06:23:22.014Z,91.14
2023-01-30T06:25:50.152Z,92.25
2023-01-30T06:28:17.875Z,92.42
2023-01-30T06:30:44.729Z,91.81
2023-01-30T06:33:12.129Z,92.12
2023-01-30T06:35:39.706Z,91.85
2023-01-30T06:38:07.121Z,91.21
2023-01-30T06:40:33.833Z,90.78
2023-01-30T06:43:00.583Z,91.55
2023-01-30T06:45:27.186Z,93.21
2023-01-30T06:47:55.655Z,93.73
2023-01-30T06:50:25.184Z,93.41
2023-01-30T06:52:53.537Z,93.03
2023-01-30T06:55:23.718Z,93.08
2023-01-30T06:58:00.480Z,91.08
2023-01-30T07:00:27.164Z,90.98
2023-01-30T07:02:53.714Z,90.68
2023-01-30T07:05:20.536Z,90.24
2023-01-30T07:07:47.359Z,90.94
2023-01-30T07:10:14.093Z,91.36
2023-01-30T07:12:40.690Z,91.86
2023-01-30T07:15:08.099Z,91.99
2023-01-30T07:17:34.834Z,92.08
2023-01-30T07:20:01.569Z,93.21
2023-01-30T07:22:28.323Z,93.43
2023-01-30T07:24:54.965Z,93.37
2023-01-30T07:27:21.578Z,93.44
2023-01-30T07:29:48.380Z,92.56
2023-01-30T07:32:16.965Z,93.79
2023-01-30T07:34:43.727Z,93.65
2023-01-30T07:37:10.399Z,94.15
2023-01-30T07:39:37.079Z,93.93
2023-01-30T07:42:04.278Z,93.23
2023-01-30T07:44:31.360Z,93.41
2023-01-30T07:46:57.943Z,92.97
2023-01-30T07:49:24.761Z,93.22
2023-01-30T07:51:51.907Z,91.75
2023-01-30T07:54:18.723Z,92.17
2023-01-30T07:56:45.493Z,92.85
2023-01-30T07:59:12.287Z,93.12
2023-01-30T08:01:38.941Z,92.50
2023-01-30T08:04:05.610Z,92.90
2023-01-30T08:06:32.597Z,93.82
2023-01-30T08:08:59.362Z,95.15
2023-01-30T08:11:26.032Z,95.76
2023-01-30T08:13:52.860Z,95.15
2023-01-30T08:16:19.459Z,94.96
2023-01-30T08:18:46.206Z,94.53
2023-01-30T08:21:13.107Z,94.66
2023-01-30T08:23:39.769Z,94.87
2023-01-30T08:26:06.528Z,94.47
2023-01-30T08:28:33.434Z,94.57
2023-01-30T08:31:00.138Z,94.42
2023-01-30T08:33:26.902Z,93.92
2023-01-30T08:35:53.641Z,93.98
2023-01-30T08:38:20.393Z,93.80
2023-01-30T08:40:47.022Z,93.53
2023-01-30T08:43:13.821Z,93.95
2023-01-30T08:45:40.639Z,93.23
2023-01-30T08:48:08.057Z,94.25
2023-01-30T08:50:35.202Z,94.31
2023-01-30T08:53:06.728Z,93.90
2023-01-30T08:55:33.491Z,94.54
2023-01-30T08:58:00.201Z,94.64
2023-01-30T09:00:28.220Z,94.44
2023-01-30T09:02:56.034Z,94.04
2023-01-30T09:05:23.593Z,92.27
2023-01-30T09:07:51.203Z,91.54
2023-01-30T09:10:18.979Z,91.81
2023-01-30T09:12:45.904Z,91.66
2023-01-30T09:15:12.627Z,91.78
2023-01-30T09:17:39.245Z,91.65
2023-01-30T09:20:07.633Z,92.48
2023-01-30T09:22:34.278Z,91.57
2023-01-30T09:25:01.281Z,90.67
2023-01-30T09:27:27.936Z,91.39
2023-01-30T09:29:54.693Z,91.41
2023-01-30T09:32:21.557Z,90.17
2023-01-30T09:34:48.273Z,89.60
2023-01-30T09:37:17.106Z,90.24
2023-01-30T09:39:43.833Z,90.20
2023-01-30T09:42:31.473Z,89.72
2023-01-30T09:45:07.140Z,91.35
2023-01-30T09:48:21.723Z,91.50
2023-01-30T09:51:00.560Z,91.09
2023-01-30T09:54:01.026Z,90.94
2023-01-30T09:56:31.282Z,91.27
2023-01-30T09:59:01.423Z,90.15
2023-01-30T10:01:48.444Z,90.18
2023-01-30T10:04:42.006Z,90.13
2023-01-30T10:07:26.979Z,89.21
2023-01-30T10:10:24.757Z,87.63
2023-01-30T10:13:24.700Z,87.81
2023-01-30T10:15:57.406Z,87.40
2023-01-30T10:18:35.885Z,87.84
2023-01-30T10:21:17.189Z,88.42
2023-01-30T10:24:10.050Z,89.55
2023-01-30T10:26:40.004Z,90.21
2023-01-30T10:29:11.664Z,90.08
2023-01-30T10:31:47.652Z,88.77
2023-01-30T10:34:32.576Z,89.81
2023-01-30T10:37:10.594Z,88.38
2023-01-30T10:39:55.883Z,88.31
2023-01-30T10:42:39.009Z,89.13
2023-01-30T10:45:22.417Z,89.76
2023-01-30T10:48:07.296Z,90.74
2023-01-30T10:50:50.202Z,90.29
2023-01-30T10:53:26.559Z,90.20
2023-01-30T10:56:20.526Z,89.35
2023-01-30T10:58:56.116Z,89.00
2023-01-30T11:01:45.732Z,89.51
2023-01-30T11:04:39.515Z,89.51
2023-01-30T11:07:06.836Z,89.42
2023-01-30T11:09:45.845Z,89.61
2023-01-30T11:12:13.276Z,88.71
2023-01-30T11:14:59.469Z,87.60
2023-01-30T11:17:38.746Z,87.96
2023-01-30T11:20:18.867Z,87.14
2023-01-30T11:22:52.324Z,86.53
2023-01-30T11:25:23.347Z,87.86
2023-01-30T11:28:00.788Z,88.87
2023-01-30T11:30:30.702Z,87.92
2023-01-30T11:33:36.597Z,88.99
2023-01-30T11:36:06.851Z,87.77
2023-01-30T11:38:37.647Z,88.50
2023-01-30T11:41:06.408Z,89.10
2023-01-30T11:43:38.533Z,89.22
2023-01-30T11:46:10.646Z,88.46
2023-01-30T11:49:14.140Z,87.83
2023-01-30T11:51:37.538Z,88.52
2023-01-30T11:54:13.523Z,89.30
2023-01-30T11:56:46.648Z,87.80
2023-01-30T11:59:19.413Z,87.74
2023-01-30T12:01:46.372Z,87.42
2023-01-30T12:04:13.733Z,87.46
2023-01-30T12:06:43.231Z,88.41
2023-01-30T12:09:35.435Z,88.78
2023-01-30T12:12:02.810Z,88.19
2023-01-30T12:14:40.008Z,87.25
2023-01-30T12:17:22.498Z,87.97
2023-01-30T12:20:15.391Z,87.39
2023-01-30T12:22:51.399Z,87.94
2023-01-30T12:25:26.523Z,88.75
2023-01-30T12:28:02.528Z,89.16
2023-01-30T12:30:49.722Z,88.82
2023-01-30T12:35:55.073Z,86.94
2023-01-30T12:38:44.711Z,86.05
2023-01-30T12:41:17.348Z,85.05
2023-01-30T12:43:49.778Z,85.26
2023-01-30T12:46:46.710Z,84.75
2023-01-30T12:49:29.094Z,84.04
2023-01-30T12:52:02.481Z,83.24
2023-01-30T12:54:48.768Z,83.07
2023-01-30T12:57:52.713Z,81.93
2023-01-30T13:00:28.714Z,81.47
2023-01-30T13:03:04.273Z,81.32
2023-01-30T13:05:56.056Z,81.64
2023-01-30T13:08:53.709Z,81.32
2023-01-30T13:11:35.874Z,81.84
2023-01-30T13:14:14.027Z,82.04
2023-01-30T13:16:40.720Z,81.11
2023-01-30T13:19:31.137Z,82.88
2023-01-30T13:22:30.993Z,83.43
2023-01-30T13:25:35.121Z,82.01
2023-01-30T13:28:12.610Z,82.13
2023-01-30T13:30:41.628Z,82.01
2023-01-30T13:33:30.835Z,82.64
2023-01-30T13:36:11.139Z,81.91
2023-01-30T13:38:44.080Z,81.51
2023-01-30T13:41:13.382Z,81.38
2023-01-30T13:43:46.618Z,82.59
2023-01-30T13:46:19.788Z,83.71
2023-01-30T13:49:07.868Z,84.98
2023-01-30T13:51:52.114Z,85.84
2023-01-30T13:55:17.586Z,86.93
2023-01-30T13:58:02.165Z,85.00
2023-01-30T14:00:30.585Z,84.69
2023-01-30T14:03:03.192Z,83.88
2023-01-30T14:05:51.617Z,82.57
2023-01-30T14:08:49.840Z,81.38
2023-01-30T14:11:28.841Z,81.00
2023-01-30T14:14:02.395Z,80.22
2023-01-30T14:16:44.373Z,78.88
2023-01-30T14:19:40.467Z,78.36
2023-01-30T14:22:26.465Z,78.82
2023-01-30T14:25:29.949Z,78.01
2023-01-30T14:27:59.583Z,76.72
2023-01-30T14:30:38.338Z,74.63
2023-01-30T14:33:24.963Z,73.85
2023-01-30T14:36:00.906Z,73.17
2023-01-30T14:38:28.891Z,72.90
2023-01-30T14:40:58.635Z,73.04
2023-01-30T14:43:25.288Z,73.22
2023-01-30T14:45:57.151Z,72.17
2023-01-30T14:48:32.676Z,72.40
2023-01-30T14:51:27.418Z,71.15
2023-01-30T14:54:12.130Z,72.32
2023-01-30T14:56:51.399Z,71.67
2023-01-30T14:59:27.324Z,72.41
2023-01-30T15:02:09.159Z,73.90
2023-01-30T15:04:50.750Z,76.44
2023-01-30T15:07:28.846Z,77.27
2023-01-30T15:10:26.853Z,77.79
2023-01-30T15:13:02.676Z,78.98
2023-01-30T15:15:35.534Z,79.87
2023-01-30T15:18:33.273Z,79.88
2023-01-30T15:21:29.231Z,79.41
2023-01-30T15:24:41.011Z,79.17
2023-01-30T15:27:25.805Z,79.12
2023-01-30T15:30:17.906Z,79.36
2023-01-30T15:32:45.263Z,78.61
2023-01-30T15:35:11.842Z,77.82
2023-01-30T15:37:50.509Z,77.04
2023-01-30T15:40:17.707Z,76.38
2023-01-30T15:43:01.471Z,75.17
2023-01-30T15:45:42.268Z,74.85
2023-01-30T15:48:37.373Z,75.82
2023-01-30T15:51:04.769Z,75.46
2023-01-30T15:53:37.428Z,75.39
2023-01-30T15:56:09.518Z,75.04
2023-01-30T15:58:42.409Z,75.58
2023-01-30T16:01:10.118Z,74.86
2023-01-30T16:03:41.913Z,74.67
2023-01-30T16:06:22.783Z,75.24
2023-01-30T16:09:01.492Z,73.84
2023-01-30T16:11:34.188Z,73.88
2023-01-30T16:14:01.148Z,74.36
2023-01-30T16:16:29.158Z,75.27
2023-01-30T16:18:59.769Z,75.16
2023-01-30T16:21:33.217Z,76.18
2023-01-30T16:24:21.847Z,75.53
2023-01-30T16:26:52.833Z,74.70
2023-01-30T16:29:22.962Z,74.44
2023-01-30T16:31:51.218Z,74.62
2023-01-30T16:34:23.898Z,75.15
2023-01-30T16:36:50.565Z,75.79
2023-01-30T16:39:35.323Z,75.74
2023-01-30T16:42:24.058Z,75.57
2023-01-30T16:44:50.814Z,75.99
2023-01-30T16:47:29.182Z,75.66
2023-01-30T16:49:56.631Z,74.78
2023-01-30T16:52:44.577Z,76.24
2023-01-30T16:55:23.311Z,76.36
2023-01-30T16:57:54.675Z,77.51
2023-01-30T17:00:23.619Z,77.16
2023-01-30T17:03:07.414Z,78.73
2023-01-30T17:05:40.712Z,78.74
2023-01-30T17:08:33.361Z,78.73
2023-01-30T17:11:01.538Z,78.01
2023-01-30T17:13:37.113Z,78.39
2023-01-30T17:16:22.038Z,78.71
2023-01-30T17:18:50.678Z,77.95
2023-01-30T17:21:18.870Z,77.06
2023-01-30T17:23:49.427Z,77.40
2023-01-30T17:26:16.608Z,77.09
2023-01-30T17:28:43.331Z,77.44
2023-01-30T17:31:14.597Z,78.14
2023-01-30T17:33:42.060Z,77.39
2023-01-30T17:36:23.792Z,76.81
2023-01-30T17:38:51.003Z,76.14
2023-01-30T17:41:24.077Z,77.02
2023-01-30T17:43:51.068Z,76.57
2023-01-30T17:46:26.854Z,76.94
2023-01-30T17:48:53.568Z,76.90
2023-01-30T17:51:20.169Z,77.94
2023-01-30T17:53:46.959Z,77.22
2023-01-30T17:56:18.845Z,77.76
2023-01-30T17:58:45.557Z,77.15
2023-01-30T18:01:12.249Z,77.10
2023-01-30T18:03:39.113Z,78.04
2023-01-30T18:06:06.014Z,79.06
2023-01-30T18:08:32.833Z,78.83
2023-01-30T18:10:59.437Z,77.59
2023-01-30T18:13:26.101Z,78.64
2023-01-30T18:15:58.405Z,78.68
2023-01-30T18:18:25.543Z,78.30
2023-01-30T18:20:52.125Z,78.42
2023-01-30T18:23:18.820Z,78.74
2023-01-30T18:25:45.447Z,79.15
2023-01-30T18:28:12.284Z,79.47
2023-01-30T18:30:39.084Z,79.63
2023-01-30T18:33:06.241Z,79.40
2023-01-30T18:35:32.869Z,78.93
2023-01-30T18:38:02.796Z,79.43
2023-01-30T18:40:30.129Z,79.70
2023-01-30T18:42:56.807Z,79.16
2023-01-30T18:45:23.702Z,78.88
2023-01-30T18:47:50.676Z,78.58
2023-01-30T18:50:17.645Z,79.12
2023-01-30T18:52:44.482Z,78.90
2023-01-30T18:55:11.155Z,78.68
2023-01-30T18:57:37.808Z,78.32
2023-01-30T19:00:05.315Z,79.06
2023-01-30T19:02:31.940Z,78.53
2023-01-30T19:04:58.672Z,78.94
2023-01-30T19:07:25.268Z,78.79
2023-01-30T19:09:51.916Z,79.30
2023-01-30T19:12:18.567Z,79.50
2023-01-30T19:14:45.282Z,79.34
2023-01-30T19:17:11.892Z,79.02
2023-01-30T19:19:38.634Z,79.07
2023-01-30T19:22:05.745Z,79.00
2023-01-30T19:24:32.479Z,79.96
2023-01-30T19:26:59.085Z,80.70
2023-01-30T19:29:25.824Z,80.47
2023-01-30T19:31:52.526Z,80.55
2023-01-30T19:34:19.403Z,79.71
2023-01-30T19:36:46.394Z,80.04
2023-01-30T19:39:13.105Z,80.11
2023-01-30T19:41:39.716Z,80.38
2023-01-30T19:44:08.024Z,80.91
2023-01-30T19:46:35.272Z,81.26
2023-01-30T19:49:02.033Z,81.04
2023-01-30T19:51:31.405Z,81.03
2023-01-30T19:54:01.185Z,81.06
2023-01-30T19:56:31.378Z,81.67
2023-01-30T19:59:00.165Z,82.49
2023-01-30T20:01:29.232Z,82.50
2023-01-30T20:03:56.700Z,83.45
2023-01-30T20:06:27.164Z,83.31
2023-01-30T20:08:56.518Z,83.32
2023-01-30T20:11:23.158Z,83.58
2023-01-30T20:13:50.889Z,83.33
2023-01-30T20:16:20.388Z,83.11
2023-01-30T20:18:55.731Z,82.38
2023-01-30T20:21:23.390Z,82.91
2023-01-30T20:23:50.341Z,81.93
2023-01-30T20:26:25.241Z,81.57
2023-01-30T20:28:53.793Z,82.54
2023-01-30T20:31:22.927Z,82.04
2023-01-30T20:33:50.529Z,82.27
2023-01-30T20:36:19.548Z,81.85
2023-01-30T20:38:47.819Z,81.64
2023-01-30T20:41:25.644Z,81.69
2023-01-30T20:43:54.810Z,80.43
2023-01-30T20:46:25.537Z,79.79
2023-01-30T20:48:54.496Z,80.39
2023-01-30T20:51:24.039Z,79.65
2023-01-30T20:53:57.273Z,79.45
2023-01-30T20:56:25.531Z,77.89
2023-01-30T20:58:52.923Z,78.09
2023-01-30T21:01:22.719Z,77.75
2023-01-30T21:03:51.404Z,77.15
2023-01-30T21:06:41.439Z,76.87
2023-01-30T21:09:09.398Z,76.74
2023-01-30T21:11:36.048Z,77.30
2023-01-30T21:14:03.375Z,76.94
2023-01-30T21:16:32.832Z,76.88
2023-01-30T21:19:03.729Z,75.82
2023-01-30T21:21:37.089Z,75.55
2023-01-30T21:24:06.987Z,74.95
2023-01-30T21:26:36.035Z,75.53
2023-01-30T21:29:05.365Z,75.05
2023-01-30T21:31:33.056Z,75.96
2023-01-30T21:34:00.543Z,76.34
2023-01-30T21:36:28.626Z,77.26
2023-01-30T21:38:55.702Z,77.77
2023-01-30T21:41:25.883Z,79.88
2023-01-30T21:43:52.764Z,80.88
2023-01-30T21:46:19.445Z,83.39
2023-01-30T21:48:46.144Z,84.08
2023-01-30T21:51:12.795Z,84.98
2023-01-30T21:53:39.957Z,85.41
2023-01-30T21:56:07.166Z,84.78
2023-01-30T21:58:33.881Z,85.54
2023-01-30T22:01:05.382Z,86.08
2023-01-30T22:03:33.212Z,87.68
2023-01-30T22:05:59.979Z,87.55
2023-01-30T22:08:26.729Z,85.37
2023-01-30T22:11:06.463Z,85.31
2023-01-30T22:13:37.529Z,85.79
2023-01-30T22:16:06.626Z,85.94
2023-01-30T22:18:34.059Z,87.10
2023-01-30T22:21:03.179Z,86.90
2023-01-30T22:23:36.254Z,86.89
2023-01-30T22:26:03.904Z,86.81
2023-01-30T22:28:31.588Z,86.60
2023-01-30T22:31:02.646Z,85.98
2023-01-30T22:33:30.235Z,85.55
2023-01-30T22:35:57.532Z,85.31
2023-01-30T22:38:24.461Z,84.94
2023-01-30T22:40:58.523Z,85.34
2023-01-30T22:43:25.278Z,84.58
2023-01-30T22:45:51.818Z,83.77
2023-01-30T22:48:18.554Z,84.35
2023-01-30T22:50:45.284Z,85.97
2023-01-30T22:53:12.011Z,86.59
2023-01-30T22:55:38.605Z,86.77
2023-01-30T22:58:05.368Z,86.44
2023-01-30T23:00:31.980Z,86.57
2023-01-30T23:02:58.708Z,85.62
2023-01-30T23:05:25.469Z,85.15
2023-01-30T23:07:52.340Z,85.60
2023-01-30T23:10:19.089Z,85.71
2023-01-30T23:12:46.301Z,85.70
2023-01-30T23:15:12.975Z,84.06
2023-01-30T23:17:40.187Z,84.78
2023-01-30T23:20:07.277Z,84.70
2023-01-30T23:22:33.999Z,84.14
2023-01-30T23:25:00.672Z,83.71
2023-01-30T23:27:27.528Z,83.88
2023-01-30T23:29:54.164Z,83.91
2023-01-30T23:32:20.941Z,82.45
2023-01-30T23:34:47.902Z,82.78
2023-01-30T23:37:15.208Z,84.03
2023-01-30T23:39:41.869Z,83.59
2023-01-30T23:42:08.619Z,83.80
2023-01-30T23:44:35.480Z,83.58
2023-01-30T23:47:02.153Z,83.45
2023-01-30T23:49:28.824Z,84.24
2023-01-30T23:51:55.514Z,83.33
2023-01-30T23:54:22.102Z,83.38
2023-01-30T23:56:48.904Z,83.79
2023-01-30T23:59:15.494Z,84.33
